Time;durP1;ratioP1;P1;durP2;ratioP2;P2;SDS_P1;SDS_P2;PMS_P1;PMS_P2;Temp;Humidity;BMP_temperature;BMP_pressure;BME280_temperature;BME280_humidity;BME280_pressure;Samples;Min_cycle;Max_cycle;Signal;HPM_P1;HPM_P2
2023/05/16 00:02:46;;;;;;;3.22;2.17;;;;;;;;;;13000968;19;20331;-64
2023/05/16 00:07:05;;;;;;;5.50;2.90;;;;;;;;;;12999984;19;20010;-64
2023/05/16 00:11:22;;;;;;;6.70;2.75;;;;;;;;;;13000925;19;20019;-64
2023/05/16 00:15:42;;;;;;;4.75;2.90;;;;;;;;;;13001511;19;20010;-65
2023/05/16 00:20:09;;;;;;;3.67;2.13;;;;;;;;;;12999657;19;20007;-65
2023/05/16 00:24:27;;;;;;;3.35;2.20;;;;;;;;;;12999743;19;20006;-65
2023/05/16 00:28:45;;;;;;;3.55;2.70;;;;;;;;;;12999900;19;20002;-65
2023/05/16 00:33:02;;;;;;;3.63;2.42;;;;;;;;;;12998623;19;20003;-65
2023/05/16 00:37:20;;;;;;;;;;;;;;;;;;12999844;19;20002;-64
2023/05/16 00:41:38;;;;;;;7.40;3.83;;;;;;;;;;12999101;19;19910;-65
2023/05/16 00:45:56;;;;;;;;;;;;;;;;;;13007250;19;20355;-65
2023/05/16 00:50:14;;;;;;;;;;;;;;;;;;13012008;19;19919;-65
2023/05/16 00:54:32;;;;;;;;;;;;;;;;;;13012414;19;20254;-64
2023/05/16 00:58:50;;;;;;;4.38;3.03;;;;;;;;;;13010559;19;19911;-64
2023/05/16 01:03:08;;;;;;;5.72;2.80;;;;;;;;;;13013294;19;20042;-64
2023/05/16 01:07:26;;;;;;;3.90;3.03;;;;;;;;;;13010841;19;20018;-64
2023/05/16 01:12:20;;;;;;;5.22;3.30;;;;;;;;;;13010533;19;20062;-64
2023/05/16 01:16:53;;;;;;;8.60;2.80;;;;;;;;;;13009685;19;20021;-64
2023/05/16 01:21:18;;;;;;;4.45;3.03;;;;;;;;;;13008466;19;20006;-65
2023/05/16 01:25:52;;;;;;;5.75;3.40;;;;;;;;;;13009456;19;20031;-65
2023/05/16 01:30:15;;;;;;;9.40;3.20;;;;;;;;;;13008481;19;20026;-65
2023/05/16 01:34:32;;;;;;;4.28;3.03;;;;;;;;;;13009119;19;20010;-64
2023/05/16 01:39:06;;;;;;;4.55;3.20;;;;;;;;;;13008836;19;20003;-64
2023/05/16 01:43:35;;;;;;;5.88;2.95;;;;;;;;;;13006756;19;20009;-65
2023/05/16 01:48:12;;;;;;;6.90;3.85;;;;;;;;;;13007461;19;20026;-64
2023/05/16 01:52:59;;;;;;;8.05;3.78;;;;;;;;;;13006940;19;20046;-65
2023/05/16 01:57:18;;;;;;;5.13;3.17;;;;;;;;;;13006339;19;20013;-65
2023/05/16 02:01:36;;;;;;;4.07;3.03;;;;;;;;;;13005688;19;20476;-65
2023/05/16 02:05:54;;;;;;;4.72;3.22;;;;;;;;;;13008042;19;20346;-65
2023/05/16 02:10:12;;;;;;;7.82;3.63;;;;;;;;;;13006544;19;20006;-65
2023/05/16 02:14:30;;;;;;;6.88;3.80;;;;;;;;;;13006526;19;20311;-64
2023/05/16 02:18:48;;;;;;;4.47;3.13;;;;;;;;;;13006284;19;20019;-65
2023/05/16 02:23:06;;;;;;;5.75;3.28;;;;;;;;;;13005857;19;20444;-64
2023/05/16 02:27:25;;;;;;;7.38;3.70;;;;;;;;;;13006010;19;20054;-64
2023/05/16 02:31:42;;;;;;;5.07;3.00;;;;;;;;;;13005844;19;20113;-64
2023/05/16 02:36:00;;;;;;;5.90;3.20;;;;;;;;;;13005248;19;20011;-63
2023/05/16 02:40:18;;;;;;;4.50;3.47;;;;;;;;;;13005173;19;20030;-63
2023/05/16 02:44:35;;;;;;;6.30;3.35;;;;;;;;;;13004759;19;20002;-64
2023/05/16 02:48:53;;;;;;;7.13;3.72;;;;;;;;;;13005584;19;20450;-64
2023/05/16 02:53:11;;;;;;;8.25;4.80;;;;;;;;;;13003765;19;20030;-63
2023/05/16 02:57:29;;;;;;;9.93;4.72;;;;;;;;;;13005042;19;20014;-64
2023/05/16 03:01:46;;;;;;;7.38;4.75;;;;;;;;;;13004117;19;20493;-64
2023/05/16 03:06:05;;;;;;;7.03;3.42;;;;;;;;;;13003380;19;20042;-64
2023/05/16 03:10:22;;;;;;;12.60;3.38;;;;;;;;;;13002474;19;20335;-63
2023/05/16 03:14:40;;;;;;;6.35;3.00;;;;;;;;;;13003914;19;20010;-63
2023/05/16 03:18:59;;;;;;;4.68;2.92;;;;;;;;;;13003295;19;20010;-63
2023/05/16 03:23:16;;;;;;;4.30;3.13;;;;;;;;;;13000876;19;20084;-64
2023/05/16 03:27:33;;;;;;;5.68;3.38;;;;;;;;;;13002871;19;20323;-64
2023/05/16 03:31:51;;;;;;;8.52;3.60;;;;;;;;;;13003233;19;20010;-64
2023/05/16 03:36:09;;;;;;;;;;;;;;;;;;13002432;19;20002;-63
2023/05/16 03:40:27;;;;;;;7.70;3.17;;;;;;;;;;13002825;19;19911;-64
2023/05/16 03:44:45;;;;;;;8.77;3.60;;;;;;;;;;13001814;19;20066;-64
2023/05/16 03:49:03;;;;;;;5.53;2.92;;;;;;;;;;13001372;19;20418;-64
2023/05/16 03:53:20;;;;;;;;;;;;;;;;;;13002531;19;20014;-64
2023/05/16 03:57:38;;;;;;;7.67;3.43;;;;;;;;;;13001472;19;19907;-65
2023/05/16 04:01:56;;;;;;;7.18;3.03;;;;;;;;;;13000443;19;20228;-64
2023/05/16 04:06:13;;;;;;;4.80;2.80;;;;;;;;;;13000929;19;20006;-64
2023/05/16 04:10:31;;;;;;;3.70;2.65;;;;;;;;;;13000571;19;20011;-64
2023/05/16 04:14:49;;;;;;;4.47;2.67;;;;;;;;;;13000902;19;20014;-65
2023/05/16 04:19:06;;;;;;;4.78;2.38;;;;;;;;;;13002409;19;20014;-65
2023/05/16 04:23:24;;;;;;;4.80;3.08;;;;;;;;;;13013166;19;20007;-64
2023/05/16 04:27:42;;;;;;;4.82;2.65;;;;;;;;;;13012738;19;20007;-64
2023/05/16 04:31:59;;;;;;;6.20;3.00;;;;;;;;;;13013114;19;20461;-64
2023/05/16 04:36:18;;;;;;;4.20;2.30;;;;;;;;;;13012341;19;20323;-64
2023/05/16 04:40:36;;;;;;;4.28;2.33;;;;;;;;;;13011627;19;20011;-64
2023/05/16 04:44:55;;;;;;;3.92;2.35;;;;;;;;;;13011244;19;20461;-64
2023/05/16 04:49:13;;;;;;;4.18;2.40;;;;;;;;;;13011096;19;20014;-65
2023/05/16 04:53:31;;;;;;;3.75;2.55;;;;;;;;;;13011479;19;20006;-64
2023/05/16 04:57:48;;;;;;;3.03;2.17;;;;;;;;;;13011360;19;20022;-64
2023/05/16 05:02:06;;;;;;;4.63;2.60;;;;;;;;;;13009567;19;20346;-64
2023/05/16 05:06:24;;;;;;;;;;;;;;;;;;13012211;19;20017;-64
2023/05/16 05:10:42;;;;;;;4.90;3.13;;;;;;;;;;13010948;19;20275;-64
2023/05/16 05:15:02;;;;;;;8.80;3.38;;;;;;;;;;13010496;19;20010;-64
2023/05/16 05:19:20;;;;;;;4.55;3.08;;;;;;;;;;13009470;19;20372;-63
2023/05/16 05:23:37;;;;;;;6.47;2.90;;;;;;;;;;13009990;19;20458;-63
2023/05/16 05:27:55;;;;;;;6.00;2.92;;;;;;;;;;13007547;19;20025;-64
2023/05/16 05:32:13;;;;;;;4.00;2.85;;;;;;;;;;13007269;19;20022;-64
2023/05/16 05:36:31;;;;;;;4.55;3.15;;;;;;;;;;13008733;19;20330;-64
2023/05/16 05:40:48;;;;;;;5.30;3.33;;;;;;;;;;13007682;19;20007;-64
2023/05/16 05:45:07;;;;;;;5.97;3.65;;;;;;;;;;13007606;19;20017;-64
2023/05/16 05:49:26;;;;;;;9.07;4.28;;;;;;;;;;13008450;19;20014;-64
2023/05/16 05:53:44;;;;;;;8.93;4.22;;;;;;;;;;13008215;19;20470;-63
2023/05/16 05:58:01;;;;;;;9.10;4.88;;;;;;;;;;13005418;19;20010;-67
2023/05/16 06:02:23;;;;;;;6.05;3.78;;;;;;;;;;13007115;19;20022;-63
2023/05/16 06:06:40;;;;;;;14.25;4.60;;;;;;;;;;13007407;19;20003;-63
2023/05/16 06:10:59;;;;;;;11.38;4.43;;;;;;;;;;13006884;19;20018;-62
2023/05/16 06:15:17;;;;;;;7.50;4.20;;;;;;;;;;13006529;19;20009;-64
2023/05/16 06:19:34;;;;;;;6.55;3.72;;;;;;;;;;13006120;19;20029;-64
2023/05/16 06:23:52;;;;;;;6.57;4.25;;;;;;;;;;13006633;19;20014;-64
2023/05/16 06:28:10;;;;;;;6.45;3.88;;;;;;;;;;13005585;19;20025;-64
2023/05/16 06:32:28;;;;;;;8.18;3.63;;;;;;;;;;13006043;19;20095;-64
2023/05/16 06:36:45;;;;;;;9.07;3.00;;;;;;;;;;13005779;19;20467;-64
2023/05/16 06:41:03;;;;;;;6.80;3.78;;;;;;;;;;13003686;19;20019;-64
2023/05/16 06:45:21;;;;;;;8.10;3.35;;;;;;;;;;13004192;19;20013;-64
2023/05/16 06:49:38;;;;;;;6.05;3.92;;;;;;;;;;13005521;19;20002;-63
2023/05/16 06:53:56;;;;;;;4.95;3.45;;;;;;;;;;13005555;19;20034;-64
2023/05/16 06:58:14;;;;;;;7.28;3.55;;;;;;;;;;13004725;19;20010;-63
2023/05/16 07:02:32;;;;;;;6.22;3.63;;;;;;;;;;13003752;19;20446;-65
2023/05/16 07:06:50;;;;;;;5.28;2.95;;;;;;;;;;13004088;19;20361;-64
2023/05/16 07:11:07;;;;;;;4.55;2.95;;;;;;;;;;13001845;19;20006;-64
2023/05/16 07:15:25;;;;;;;5.93;4.15;;;;;;;;;;13003521;19;20010;-64
2023/05/16 07:19:43;;;;;;;11.55;2.83;;;;;;;;;;13002868;19;20006;-64
2023/05/16 07:24:01;;;;;;;6.32;3.45;;;;;;;;;;13002728;19;20007;-65
2023/05/16 07:28:18;;;;;;;5.47;3.50;;;;;;;;;;13002958;19;20007;-64
2023/05/16 07:32:36;;;;;;;26.77;9.70;;;;;;;;;;13002598;19;20335;-65
2023/05/16 07:36:55;;;;;;;6.03;2.78;;;;;;;;;;13002382;19;20367;-64
2023/05/16 07:41:13;;;;;;;4.72;3.00;;;;;;;;;;13001188;19;20010;-64
2023/05/16 07:45:30;;;;;;;3.08;1.90;;;;;;;;;;13001366;19;20039;-64
2023/05/16 07:49:48;;;;;;;5.82;2.65;;;;;;;;;;12999929;19;20010;-65
2023/05/16 07:54:06;;;;;;;7.40;2.60;;;;;;;;;;12999166;19;20007;-63
2023/05/16 07:58:23;;;;;;;3.05;2.22;;;;;;;;;;13001482;19;20485;-65
2023/05/16 08:02:41;;;;;;;3.60;2.08;;;;;;;;;;13000795;19;20473;-64
2023/05/16 08:06:59;;;;;;;4.28;2.55;;;;;;;;;;13000916;19;20020;-64
2023/05/16 08:11:21;;;;;;;4.72;2.65;;;;;;;;;;12999711;19;20034;-64
2023/05/16 08:15:38;;;;;;;3.55;2.25;;;;;;;;;;12999344;19;20090;-65
2023/05/16 08:19:58;;;;;;;4.22;2.70;;;;;;;;;;12999928;19;20439;-64
2023/05/16 08:24:15;;;;;;;5.32;2.97;;;;;;;;;;12999848;19;20015;-64
2023/05/16 08:28:35;;;;;;;4.78;2.70;;;;;;;;;;13000253;19;20007;-64
2023/05/16 08:32:52;;;;;;;;;;;;;;;;;;13000442;19;20009;-65
2023/05/16 08:37:10;;;;;;;4.28;2.88;;;;;;;;;;12998890;19;20333;-64
2023/05/16 08:41:28;;;;;;;4.30;2.17;;;;;;;;;;12999003;19;20014;-64
2023/05/16 08:45:46;;;;;;;2.30;2.10;;;;;;;;;;12998310;19;20003;-64
2023/05/16 08:50:07;;;;;;;6.28;3.35;;;;;;;;;;12996329;19;20335;-65
2023/05/16 08:54:28;;;;;;;4.60;3.00;;;;;;;;;;12997372;19;20007;-65
2023/05/16 08:58:47;;;;;;;3.67;2.42;;;;;;;;;;12998914;19;20347;-65
2023/05/16 09:03:05;;;;;;;5.25;2.58;;;;;;;;;;12994589;19;20515;-64
2023/05/16 09:07:23;;;;;;;7.63;2.65;;;;;;;;;;13004193;19;20011;-64
2023/05/16 09:11:41;;;;;;;;;;;;;;;;;;13011403;19;20007;-68
2023/05/16 09:16:13;;;;;;;7.15;2.40;;;;;;;;;;13009922;19;19918;-67
2023/05/16 09:20:31;;;;;;;3.15;2.10;;;;;;;;;;13008624;19;20014;-68
2023/05/16 09:24:49;;;;;;;6.05;2.60;;;;;;;;;;13009359;19;20457;-67
2023/05/16 09:29:11;;;;;;;5.05;2.80;;;;;;;;;;13009301;19;20406;-68
2023/05/16 09:33:29;;;;;;;3.30;2.05;;;;;;;;;;13008498;19;20010;-67
2023/05/16 09:37:48;;;;;;;5.07;2.38;;;;;;;;;;13008742;19;20034;-68
2023/05/16 09:42:11;;;;;;;2.83;1.95;;;;;;;;;;13006859;19;20018;-68
2023/05/16 09:46:30;;;;;;;3.97;2.78;;;;;;;;;;13006587;19;20485;-67
2023/05/16 09:50:53;;;;;;;4.10;2.40;;;;;;;;;;13005954;19;20098;-67
2023/05/16 09:55:11;;;;;;;3.05;2.03;;;;;;;;;;13007780;19;20040;-68
2023/05/16 09:59:30;;;;;;;;;;;;;;;;;;13008327;19;20013;-67
2023/05/16 10:03:48;;;;;;;3.33;2.38;;;;;;;;;;13005896;19;20330;-67
2023/05/16 10:08:06;;;;;;;;;;;;;;;;;;13007181;19;20003;-68
2023/05/16 10:12:32;;;;;;;2.70;2.10;;;;;;;;;;13005695;19;19914;-68
2023/05/16 10:16:51;;;;;;;4.72;2.00;;;;;;;;;;13005604;19;20008;-68
2023/05/16 10:21:15;;;;;;;2.28;1.90;;;;;;;;;;13003865;19;20002;-68
2023/05/16 10:25:43;;;;;;;4.63;2.38;;;;;;;;;;13006568;19;20013;-68
2023/05/16 10:30:03;;;;;;;1.98;1.60;;;;;;;;;;13004697;19;20485;-69
2023/05/16 10:34:22;;;;;;;4.10;2.10;;;;;;;;;;13003998;19;20347;-68
2023/05/16 10:38:41;;;;;;;3.15;2.20;;;;;;;;;;13005760;19;20025;-68
2023/05/16 10:43:02;;;;;;;6.18;2.03;;;;;;;;;;13002698;19;20013;-68
2023/05/16 10:47:19;;;;;;;4.07;2.22;;;;;;;;;;13005972;19;20014;-69
2023/05/16 10:51:38;;;;;;;4.38;1.90;;;;;;;;;;13003321;19;20014;-68
2023/05/16 10:55:58;;;;;;;2.70;1.40;;;;;;;;;;13005897;19;19998;-68
2023/05/16 11:00:22;;;;;;;3.45;1.65;;;;;;;;;;13004055;19;20006;-68
2023/05/16 11:04:51;;;;;;;2.20;1.80;;;;;;;;;;13004281;19;20017;-68
2023/05/16 11:09:09;;;;;;;1.73;1.40;;;;;;;;;;13004076;19;20512;-68
2023/05/16 11:13:27;;;;;;;3.78;1.60;;;;;;;;;;13004344;19;20025;-69
2023/05/16 11:17:45;;;;;;;2.22;1.50;;;;;;;;;;13004436;19;20334;-70
2023/05/16 11:22:19;;;;;;;2.05;1.55;;;;;;;;;;13003165;19;20010;-68
2023/05/16 11:26:37;;;;;;;2.75;1.48;;;;;;;;;;13003635;19;20018;-68
2023/05/16 11:30:58;;;;;;;1.85;1.25;;;;;;;;;;12999776;19;20010;-68
2023/05/16 11:35:17;;;;;;;2.70;1.40;;;;;;;;;;13003447;19;20022;-69
2023/05/16 11:39:35;;;;;;;2.25;1.50;;;;;;;;;;13002385;19;20010;-69
2023/05/16 11:43:53;;;;;;;2.10;1.17;;;;;;;;;;13001307;19;20330;-68
2023/05/16 11:48:10;;;;;;;;;;;;;;;;;;13002176;19;20017;-68
2023/05/16 11:52:47;;;;;;;1.58;1.05;;;;;;;;;;13000514;19;19922;-69
2023/05/16 11:57:05;;;;;;;1.90;1.15;;;;;;;;;;13001485;19;20006;-68
2023/05/16 12:01:23;;;;;;;;;;;;;;;;;;13000165;19;20022;-68
2023/05/16 12:05:55;;;;;;;3.88;1.60;;;;;;;;;;13001364;19;19934;-69
2023/05/16 12:10:15;;;;;;;7.25;1.20;;;;;;;;;;13000382;19;20480;-68
2023/05/16 12:14:33;;;;;;;2.38;1.40;;;;;;;;;;13000763;19;20026;-68
2023/05/16 12:18:51;;;;;;;;;;;;;;;;;;13001873;19;20022;-68
2023/05/16 12:23:11;;;;;;;2.60;1.55;;;;;;;;;;13000209;19;20010;-68
2023/05/16 12:27:29;;;;;;;2.90;1.95;;;;;;;;;;13000748;19;20003;-68
2023/05/16 12:31:47;;;;;;;2.75;1.67;;;;;;;;;;13000616;19;20002;-69
2023/05/16 12:36:13;;;;;;;2.10;1.38;;;;;;;;;;13000507;19;20006;-68
2023/05/16 12:40:31;;;;;;;4.60;2.05;;;;;;;;;;13005623;19;20014;-68
2023/05/16 12:44:48;;;;;;;2.60;1.58;;;;;;;;;;13011172;19;20007;-68
2023/05/16 12:49:07;;;;;;;;;;;;;;;;;;13011272;19;19995;-68
2023/05/16 12:53:25;;;;;;;4.38;1.48;;;;;;;;;;13012455;19;20299;-68
2023/05/16 12:57:45;;;;;;;2.55;1.73;;;;;;;;;;13012140;19;20038;-68
2023/05/16 13:02:03;;;;;;;4.57;1.88;;;;;;;;;;13011173;19;20011;-68
2023/05/16 13:06:21;;;;;;;2.33;1.60;;;;;;;;;;13012179;19;20027;-68
2023/05/16 13:10:39;;;;;;;2.13;1.55;;;;;;;;;;13011763;19;20018;-68
2023/05/16 13:14:57;;;;;;;3.88;1.85;;;;;;;;;;13011247;19;20015;-68
2023/05/16 13:19:14;;;;;;;;;;;;;;;;;;13010601;19;20364;-67
2023/05/16 13:23:32;;;;;;;2.95;1.40;;;;;;;;;;13011037;19;19907;-67
2023/05/16 13:27:50;;;;;;;2.83;1.65;;;;;;;;;;13010724;19;20007;-68
2023/05/16 13:32:09;;;;;;;1.92;1.52;;;;;;;;;;13009661;19;20493;-68
2023/05/16 13:36:27;;;;;;;;;;;;;;;;;;13011011;19;20017;-68
2023/05/16 13:40:58;;;;;;;2.38;1.85;;;;;;;;;;13010103;19;19907;-67
2023/05/16 13:45:17;;;;;;;3.35;1.90;;;;;;;;;;13008824;19;20011;-68
2023/05/16 13:49:35;;;;;;;2.05;1.35;;;;;;;;;;13009537;19;20010;-68
2023/05/16 13:53:52;;;;;;;3.70;2.20;;;;;;;;;;13007827;19;20039;-68
2023/05/16 13:58:10;;;;;;;2.75;1.88;;;;;;;;;;13008928;19;20043;-68
2023/05/16 14:02:28;;;;;;;2.40;1.65;;;;;;;;;;13008259;19;20493;-68
2023/05/16 14:06:46;;;;;;;2.58;1.60;;;;;;;;;;13008112;19;20002;-67
2023/05/16 14:11:03;;;;;;;4.50;2.20;;;;;;;;;;13007793;19;20015;-68
2023/05/16 14:15:21;;;;;;;4.20;2.53;;;;;;;;;;13008410;19;20026;-68
2023/05/16 14:19:39;;;;;;;1.67;1.38;;;;;;;;;;13007262;19;19999;-67
2023/05/16 14:23:56;;;;;;;2.78;2.03;;;;;;;;;;13003869;19;20010;-67
2023/05/16 14:28:14;;;;;;;2.65;2.28;;;;;;;;;;13006691;19;20021;-68
2023/05/16 14:32:32;;;;;;;2.67;1.65;;;;;;;;;;13006827;19;20026;-68
2023/05/16 14:36:49;;;;;;;2.88;1.50;;;;;;;;;;13006558;19;20357;-67
2023/05/16 14:41:07;;;;;;;3.33;1.88;;;;;;;;;;13004977;19;20007;-69
2023/05/16 14:45:25;;;;;;;3.17;1.88;;;;;;;;;;13005427;19;20038;-69
2023/05/16 14:49:43;;;;;;;1.80;1.52;;;;;;;;;;13005024;19;20338;-68
2023/05/16 14:54:01;;;;;;;2.33;1.75;;;;;;;;;;13004285;19;20464;-68
2023/05/16 14:58:19;;;;;;;;;;;;;;;;;;13005103;19;20014;-68
2023/05/16 15:02:36;;;;;;;2.20;1.65;;;;;;;;;;12981704;19;19919;-68
2023/05/16 15:06:54;;;;;;;2.15;1.52;;;;;;;;;;13003962;19;20102;-68
2023/05/16 15:11:12;;;;;;;2.30;1.63;;;;;;;;;;13003144;19;20030;-67
2023/05/16 15:15:30;;;;;;;2.95;1.73;;;;;;;;;;13004798;19;20430;-68
2023/05/16 15:19:48;;;;;;;3.35;2.28;;;;;;;;;;13003901;19;20002;-69
2023/05/16 15:24:07;;;;;;;8.07;3.28;;;;;;;;;;13003289;19;20010;-68
2023/05/16 15:28:24;;;;;;;3.85;2.75;;;;;;;;;;13003419;19;20025;-69
2023/05/16 15:32:42;;;;;;;2.53;1.95;;;;;;;;;;13002936;19;20013;-69
2023/05/16 15:37:00;;;;;;;3.45;2.30;;;;;;;;;;13002014;19;20011;-72
2023/05/16 15:41:19;;;;;;;2.63;2.40;;;;;;;;;;13002310;19;20022;-72
2023/05/16 15:45:57;;;;;;;3.03;2.38;;;;;;;;;;13002328;19;20006;-70
2023/05/16 15:50:15;;;;;;;4.53;2.60;;;;;;;;;;13002024;19;20006;-69
2023/05/16 15:54:36;;;;;;;3.55;2.90;;;;;;;;;;13001908;19;20461;-68
2023/05/16 15:58:55;;;;;;;19.45;13.70;;;;;;;;;;13001961;19;20026;-68
2023/05/16 16:03:12;;;;;;;20.27;12.52;;;;;;;;;;12998966;19;20013;-68
2023/05/16 16:07:30;;;;;;;11.93;5.90;;;;;;;;;;13001368;19;20002;-67
2023/05/16 16:11:48;;;;;;;9.82;3.75;;;;;;;;;;13001089;19;20002;-67
2023/05/16 16:16:06;;;;;;;4.35;3.17;;;;;;;;;;13007071;19;20362;-67
2023/05/16 16:20:25;;;;;;;;;;;;;;;;;;13013597;19;20010;-66
2023/05/16 16:24:42;;;;;;;3.47;2.90;;;;;;;;;;13012123;19;19918;-66
2023/05/16 16:29:00;;;;;;;4.15;2.97;;;;;;;;;;13012862;19;20010;-66
2023/05/16 16:33:21;;;;;;;5.80;3.20;;;;;;;;;;13012784;19;20014;-66
2023/05/16 16:37:39;;;;;;;4.13;3.70;;;;;;;;;;13013561;19;20022;-66
2023/05/16 16:41:59;;;;;;;7.22;3.30;;;;;;;;;;13012653;19;20017;-66
2023/05/16 16:46:18;;;;;;;5.00;3.40;;;;;;;;;;13011717;19;20457;-66
2023/05/16 16:50:35;;;;;;;;;;;;;;;;;;13012461;19;20007;-66
2023/05/16 16:54:53;;;;;;;10.05;4.57;;;;;;;;;;13011867;19;19911;-66
2023/05/16 16:59:11;;;;;;;9.85;4.25;;;;;;;;;;13011659;19;20014;-66
2023/05/16 17:03:28;;;;;;;6.80;4.15;;;;;;;;;;13010860;19;20367;-66
2023/05/16 17:07:47;;;;;;;7.07;4.60;;;;;;;;;;13010758;19;20007;-66
2023/05/16 17:12:07;;;;;;;7.75;5.40;;;;;;;;;;13010147;19;20505;-66
2023/05/16 17:16:26;;;;;;;8.23;5.80;;;;;;;;;;13010068;19;20018;-66
2023/05/16 17:20:44;;;;;;;6.15;4.80;;;;;;;;;;13010429;19;20010;-66
2023/05/16 17:25:02;;;;;;;8.50;4.97;;;;;;;;;;13009871;19;20010;-66
2023/05/16 17:29:20;;;;;;;6.53;4.28;;;;;;;;;;13007577;19;20006;-66
2023/05/16 17:33:38;;;;;;;7.07;4.45;;;;;;;;;;13009496;19;20010;-66
2023/05/16 17:37:56;;;;;;;5.68;4.07;;;;;;;;;;13009765;19;20030;-66
2023/05/16 17:42:13;;;;;;;6.25;4.32;;;;;;;;;;13008649;19;20010;-66
2023/05/16 17:46:32;;;;;;;;;;;;;;;;;;13008898;19;20492;-66
2023/05/16 17:50:50;;;;;;;;;;;;;;;;;;13007316;19;19914;-66
2023/05/16 17:55:08;;;;;;;;;;;;;;;;;;13009046;19;19910;-66
2023/05/16 17:59:26;;;;;;;5.60;3.65;;;;;;;;;;13007397;19;20374;-66
2023/05/16 18:03:43;;;;;;;6.57;4.03;;;;;;;;;;13007332;19;20014;-66
2023/05/16 18:08:02;;;;;;;4.53;3.25;;;;;;;;;;13008010;19;20015;-66
2023/05/16 18:12:22;;;;;;;5.50;4.05;;;;;;;;;;13007190;19;20018;-66
2023/05/16 18:16:39;;;;;;;7.32;4.10;;;;;;;;;;13007905;19;20323;-66
2023/05/16 18:20:57;;;;;;;5.15;3.60;;;;;;;;;;13007067;19;20094;-65
2023/05/16 18:25:15;;;;;;;5.20;4.20;;;;;;;;;;13005640;19;20010;-66
2023/05/16 18:29:33;;;;;;;;;;;;;;;;;;13007122;19;20011;-66
2023/05/16 18:33:51;;;;;;;5.18;4.00;;;;;;;;;;13006748;19;19922;-66
2023/05/16 18:38:08;;;;;;;6.22;3.90;;;;;;;;;;13004201;19;20031;-66
2023/05/16 18:42:40;;;;;;;5.82;4.03;;;;;;;;;;13004904;19;20022;-66
2023/05/16 18:46:58;;;;;;;7.85;5.25;;;;;;;;;;13005763;19;20473;-66
2023/05/16 18:51:16;;;;;;;6.85;5.57;;;;;;;;;;13005104;19;20011;-65
2023/05/16 18:55:34;;;;;;;8.20;6.10;;;;;;;;;;13005353;19;20010;-66
2023/05/16 18:59:51;;;;;;;13.98;7.35;;;;;;;;;;13004223;19;20026;-66
2023/05/16 19:04:09;;;;;;;10.27;5.80;;;;;;;;;;13003058;19;19998;-66
2023/05/16 19:08:27;;;;;;;10.43;5.95;;;;;;;;;;13004091;19;20010;-65
2023/05/16 19:13:07;;;;;;;18.45;9.35;;;;;;;;;;13003415;19;20007;-66
2023/05/16 19:17:26;;;;;;;9.48;5.53;;;;;;;;;;13003962;19;20021;-66
2023/05/16 19:21:43;;;;;;;15.50;8.77;;;;;;;;;;13003448;19;20030;-65
2023/05/16 19:26:01;;;;;;;7.10;4.53;;;;;;;;;;13002475;19;20026;-66
2023/05/16 19:30:19;;;;;;;5.47;4.15;;;;;;;;;;13000928;19;20006;-65
2023/05/16 19:34:36;;;;;;;5.82;4.43;;;;;;;;;;13003491;19;20029;-65
2023/05/16 19:38:54;;;;;;;5.65;4.07;;;;;;;;;;13002544;19;19999;-65
2023/05/16 19:43:12;;;;;;;5.13;3.70;;;;;;;;;;13000514;19;20017;-65
2023/05/16 19:47:30;;;;;;;4.35;3.53;;;;;;;;;;13002241;19;20348;-65
2023/05/16 19:51:48;;;;;;;4.32;3.35;;;;;;;;;;12999918;19;20006;-65
2023/05/16 19:56:05;;;;;;;7.07;3.22;;;;;;;;;;13001183;19;20007;-66
2023/05/16 20:00:24;;;;;;;5.22;3.45;;;;;;;;;;13001423;19;20460;-66
2023/05/16 20:04:41;;;;;;;;;;;;;;;;;;13001442;19;20110;-65
2023/05/16 20:08:59;;;;;;;3.90;2.88;;;;;;;;;;13001232;19;19930;-65
2023/05/16 20:13:19;;;;;;;4.57;2.50;;;;;;;;;;13000054;19;20480;-65
2023/05/16 20:17:38;;;;;;;3.60;2.53;;;;;;;;;;13001047;19;20015;-65
2023/05/16 20:21:56;;;;;;;3.50;2.35;;;;;;;;;;12999972;19;20011;-66
2023/05/16 20:26:14;;;;;;;4.70;2.55;;;;;;;;;;12999516;19;19999;-65
2023/05/16 20:30:31;;;;;;;;;;;;;;;;;;13000772;19;20042;-65
2023/05/16 20:34:49;;;;;;;3.70;2.60;;;;;;;;;;12999424;19;20255;-65
2023/05/16 20:39:07;;;;;;;2.33;1.88;;;;;;;;;;12998858;19;20220;-65
2023/05/16 20:43:25;;;;;;;3.10;2.10;;;;;;;;;;12998885;19;20107;-65
2023/05/16 20:47:43;;;;;;;1.25;1.15;;;;;;;;;;12999476;19;20026;-65
2023/05/16 20:52:03;;;;;;;1.85;1.40;;;;;;;;;;12998766;19;20118;-65
2023/05/16 20:56:21;;;;;;;2.42;1.48;;;;;;;;;;12998766;19;20011;-65
2023/05/16 21:00:39;;;;;;;1.70;1.40;;;;;;;;;;13001275;19;20367;-65
2023/05/16 21:04:56;;;;;;;2.60;1.65;;;;;;;;;;13010795;19;20047;-65
2023/05/16 21:09:22;;;;;;;1.52;1.17;;;;;;;;;;13011120;19;20019;-65
2023/05/16 21:13:40;;;;;;;1.23;1.00;;;;;;;;;;13011285;19;20010;-65
2023/05/16 21:17:57;;;;;;;1.95;1.45;;;;;;;;;;13010571;19;20031;-64
2023/05/16 21:22:15;;;;;;;;;;;;;;;;;;13009790;19;19999;-65
2023/05/16 21:26:34;;;;;;;1.75;1.15;;;;;;;;;;13010829;19;19915;-64
2023/05/16 21:30:53;;;;;;;1.63;1.30;;;;;;;;;;13010793;19;20015;-64
2023/05/16 21:35:10;;;;;;;7.65;1.40;;;;;;;;;;13010108;19;20003;-65
2023/05/16 21:39:28;;;;;;;1.70;1.35;;;;;;;;;;13008907;19;20010;-65
2023/05/16 21:43:46;;;;;;;2.35;1.38;;;;;;;;;;13008326;19;20137;-65
2023/05/16 21:48:06;;;;;;;1.38;1.27;;;;;;;;;;13008898;19;20002;-65
2023/05/16 21:52:24;;;;;;;;;;;;;;;;;;13009487;19;20007;-65
2023/05/16 21:56:42;;;;;;;1.63;1.15;;;;;;;;;;13008560;19;19918;-65
2023/05/16 22:01:00;;;;;;;1.92;1.05;;;;;;;;;;13008289;19;20002;-65
2023/05/16 22:05:18;;;;;;;7.65;1.30;;;;;;;;;;13007763;19;20010;-65
2023/05/16 22:09:35;;;;;;;1.60;1.30;;;;;;;;;;13005629;19;20090;-64
2023/05/16 22:13:53;;;;;;;2.17;1.50;;;;;;;;;;13005737;19;20010;-64
2023/05/16 22:18:11;;;;;;;2.50;1.30;;;;;;;;;;13007461;19;20030;-65
2023/05/16 22:22:29;;;;;;;1.98;1.65;;;;;;;;;;13006776;19;20007;-64
2023/05/16 22:26:46;;;;;;;1.48;1.38;;;;;;;;;;13007038;19;20466;-64
2023/05/16 22:31:04;;;;;;;2.90;1.08;;;;;;;;;;13006626;19;20014;-65
2023/05/16 22:35:23;;;;;;;1.25;1.10;;;;;;;;;;13006426;19;20466;-64
2023/05/16 22:39:41;;;;;;;2.03;1.63;;;;;;;;;;13006437;19;20006;-64
2023/05/16 22:43:59;;;;;;;3.47;1.38;;;;;;;;;;13005452;19;20006;-65
2023/05/16 22:48:17;;;;;;;1.40;1.10;;;;;;;;;;13004508;19;20030;-65
2023/05/16 22:52:39;;;;;;;1.08;0.98;;;;;;;;;;13005260;19;20018;-65
2023/05/16 22:56:57;;;;;;;2.38;1.10;;;;;;;;;;13005159;19;20002;-64
2023/05/16 23:01:15;;;;;;;0.98;0.90;;;;;;;;;;13004539;19;20011;-64
2023/05/16 23:05:32;;;;;;;1.10;1.00;;;;;;;;;;13003200;19;20007;-64
2023/05/16 23:09:50;;;;;;;1.20;0.93;;;;;;;;;;13003777;19;20344;-64
2023/05/16 23:14:08;;;;;;;1.20;1.00;;;;;;;;;;13003711;19;20017;-65
2023/05/16 23:18:25;;;;;;;0.77;0.77;;;;;;;;;;13004136;19;19999;-64
2023/05/16 23:22:43;;;;;;;1.50;0.80;;;;;;;;;;13003171;19;20366;-64
2023/05/16 23:27:01;;;;;;;0.73;0.70;;;;;;;;;;13000331;19;20010;-67
2023/05/16 23:31:19;;;;;;;2.67;1.10;;;;;;;;;;13002694;19;20020;-65
2023/05/16 23:35:36;;;;;;;0.98;0.95;;;;;;;;;;13003089;19;20038;-64
2023/05/16 23:39:54;;;;;;;1.67;0.95;;;;;;;;;;13002850;19;20017;-64
2023/05/16 23:44:11;;;;;;;1.48;1.00;;;;;;;;;;13000850;19;20053;-64
2023/05/16 23:48:29;;;;;;;1.83;1.17;;;;;;;;;;13002393;19;20010;-64
2023/05/16 23:52:47;;;;;;;0.80;0.80;;;;;;;;;;13002501;19;20034;-65
2023/05/16 23:57:05;;;;;;;2.35;1.10;;;;;;;;;;13000673;19;20363;-65
